sensor_id;sensor_type;location;lat;lon;timestamp;pressure;altitude;pressure_sealevel;temperature;humidity
7524;BME280;3803;51.666;7.630;2023-02-03T00:00:07;101758.66;;;11.43;63.65
7524;BME280;3803;51.666;7.630;2023-02-03T00:00:35;101765.53;;;11.41;63.83
7524;BME280;3803;51.666;7.630;2023-02-03T00:01:12;101760.41;;;11.44;63.97
7524;BME280;3803;51.666;7.630;2023-02-03T00:01:32;101760.31;;;11.41;64.08
7524;BME280;3803;51.666;7.630;2023-02-03T00:01:53;101743.50;;;11.34;63.76
7524;BME280;3803;51.666;7.630;2023-02-03T00:02:13;101745.56;;;11.43;63.88
7524;BME280;3803;51.666;7.630;2023-02-03T00:03:41;101761.84;;;11.57;63.86
7524;BME280;3803;51.666;7.630;2023-02-03T00:04:02;101762.53;;;11.53;63.86
7524;BME280;3803;51.666;7.630;2023-02-03T00:04:23;101765.16;;;11.53;63.81
7524;BME280;3803;51.666;7.630;2023-02-03T00:04:43;101761.31;;;11.45;63.88
7524;BME280;3803;51.666;7.630;2023-02-03T00:05:05;101754.44;;;11.47;63.96
7524;BME280;3803;51.666;7.630;2023-02-03T00:05:25;101750.88;;;11.45;63.96
7524;BME280;3803;51.666;7.630;2023-02-03T00:05:46;101753.38;;;11.42;64.11
7524;BME280;3803;51.666;7.630;2023-02-03T00:06:08;101743.94;;;11.45;63.77
7524;BME280;3803;51.666;7.630;2023-02-03T00:06:30;101746.28;;;11.39;63.70
7524;BME280;3803;51.666;7.630;2023-02-03T00:07:54;101756.16;;;11.46;63.90
7524;BME280;3803;51.666;7.630;2023-02-03T00:08:16;101758.81;;;11.48;63.69
7524;BME280;3803;51.666;7.630;2023-02-03T00:08:38;101749.09;;;11.44;63.54
7524;BME280;3803;51.666;7.630;2023-02-03T00:08:59;101762.59;;;11.55;63.37
7524;BME280;3803;51.666;7.630;2023-02-03T00:09:21;101755.34;;;11.47;63.54
7524;BME280;3803;51.666;7.630;2023-02-03T00:09:41;101762.44;;;11.51;63.44
7524;BME280;3803;51.666;7.630;2023-02-03T00:10:03;101757.00;;;11.45;63.61
7524;BME280;3803;51.666;7.630;2023-02-03T00:10:23;101741.16;;;11.41;63.61
7524;BME280;3803;51.666;7.630;2023-02-03T00:10:53;101749.34;;;11.50;63.63
7524;BME280;3803;51.666;7.630;2023-02-03T00:11:14;101756.22;;;11.48;63.65
7524;BME280;3803;51.666;7.630;2023-02-03T00:11:35;101752.19;;;11.56;63.57
7524;BME280;3803;51.666;7.630;2023-02-03T00:11:56;101750.97;;;11.48;63.87
7524;BME280;3803;51.666;7.630;2023-02-03T00:12:16;101750.09;;;11.47;63.70
7524;BME280;3803;51.666;7.630;2023-02-03T00:12:37;101759.81;;;11.50;63.52
7524;BME280;3803;51.666;7.630;2023-02-03T00:12:58;101736.13;;;11.47;63.48
7524;BME280;3803;51.666;7.630;2023-02-03T00:13:18;101761.69;;;11.54;63.64
7524;BME280;3803;51.666;7.630;2023-02-03T00:14:43;101740.34;;;11.43;63.21
7524;BME280;3803;51.666;7.630;2023-02-03T00:15:04;101737.72;;;11.43;63.31
7524;BME280;3803;51.666;7.630;2023-02-03T00:15:24;101737.50;;;11.37;63.79
7524;BME280;3803;51.666;7.630;2023-02-03T00:15:46;101740.41;;;11.45;63.50
7524;BME280;3803;51.666;7.630;2023-02-03T00:16:06;101733.31;;;11.41;63.59
7524;BME280;3803;51.666;7.630;2023-02-03T00:16:27;101737.97;;;11.49;63.61
7524;BME280;3803;51.666;7.630;2023-02-03T00:16:47;101736.09;;;11.45;63.32
7524;BME280;3803;51.666;7.630;2023-02-03T00:17:08;101746.00;;;11.54;63.10
7524;BME280;3803;51.666;7.630;2023-02-03T00:17:29;101743.28;;;11.51;63.17
7524;BME280;3803;51.666;7.630;2023-02-03T00:17:50;101735.44;;;11.51;63.15
7524;BME280;3803;51.666;7.630;2023-02-03T00:18:11;101756.44;;;11.52;63.16
7524;BME280;3803;51.666;7.630;2023-02-03T00:18:32;101740.53;;;11.48;63.27
7524;BME280;3803;51.666;7.630;2023-02-03T00:18:53;101743.22;;;11.49;63.16
7524;BME280;3803;51.666;7.630;2023-02-03T00:19:13;101735.69;;;11.36;63.40
7524;BME280;3803;51.666;7.630;2023-02-03T00:19:34;101744.94;;;11.49;63.42
7524;BME280;3803;51.666;7.630;2023-02-03T00:19:54;101755.69;;;11.57;63.37
7524;BME280;3803;51.666;7.630;2023-02-03T00:20:16;101740.75;;;11.52;63.20
7524;BME280;3803;51.666;7.630;2023-02-03T00:20:37;101741.53;;;11.51;62.90
7524;BME280;3803;51.666;7.630;2023-02-03T00:20:58;101732.00;;;11.52;63.17
7524;BME280;3803;51.666;7.630;2023-02-03T00:21:18;101743.34;;;11.52;63.04
7524;BME280;3803;51.666;7.630;2023-02-03T00:21:39;101753.91;;;11.56;63.06
7524;BME280;3803;51.666;7.630;2023-02-03T00:22:00;101743.72;;;11.62;63.09
7524;BME280;3803;51.666;7.630;2023-02-03T00:22:20;101748.94;;;11.62;62.81
7524;BME280;3803;51.666;7.630;2023-02-03T00:22:41;101734.03;;;11.59;62.78
7524;BME280;3803;51.666;7.630;2023-02-03T00:23:06;101734.09;;;11.61;62.93
7524;BME280;3803;51.666;7.630;2023-02-03T00:23:27;101736.72;;;11.61;63.22
7524;BME280;3803;51.666;7.630;2023-02-03T00:23:51;101742.16;;;11.65;62.73
7524;BME280;3803;51.666;7.630;2023-02-03T00:24:13;101729.94;;;11.66;62.90
7524;BME280;3803;51.666;7.630;2023-02-03T00:24:34;101738.47;;;11.62;62.84
7524;BME280;3803;51.666;7.630;2023-02-03T00:24:55;101745.56;;;11.64;62.76
7524;BME280;3803;51.666;7.630;2023-02-03T00:25:16;101744.53;;;11.61;62.60
7524;BME280;3803;51.666;7.630;2023-02-03T00:25:37;101743.91;;;11.67;62.52
7524;BME280;3803;51.666;7.630;2023-02-03T00:26:12;101734.34;;;11.67;62.60
7524;BME280;3803;51.666;7.630;2023-02-03T00:26:40;101743.25;;;11.72;62.64
7524;BME280;3803;51.666;7.630;2023-02-03T00:27:01;101734.97;;;11.61;62.59
7524;BME280;3803;51.666;7.630;2023-02-03T00:27:22;101742.94;;;11.64;62.55
7524;BME280;3803;51.666;7.630;2023-02-03T00:28:13;101751.09;;;11.72;62.30
7524;BME280;3803;51.666;7.630;2023-02-03T00:28:35;101747.38;;;11.65;62.85
7524;BME280;3803;51.666;7.630;2023-02-03T00:28:58;101734.50;;;11.72;62.40
7524;BME280;3803;51.666;7.630;2023-02-03T00:29:20;101735.34;;;11.71;62.40
7524;BME280;3803;51.666;7.630;2023-02-03T00:29:45;101736.09;;;11.67;62.33
7524;BME280;3803;51.666;7.630;2023-02-03T00:30:06;101736.72;;;11.61;62.39
7524;BME280;3803;51.666;7.630;2023-02-03T00:30:27;101730.69;;;11.63;62.77
7524;BME280;3803;51.666;7.630;2023-02-03T00:30:48;101733.50;;;11.68;62.39
7524;BME280;3803;51.666;7.630;2023-02-03T00:31:20;101730.47;;;11.57;62.39
7524;BME280;3803;51.666;7.630;2023-02-03T00:31:41;101729.56;;;11.57;62.59
7524;BME280;3803;51.666;7.630;2023-02-03T00:32:01;101730.47;;;11.57;62.66
7524;BME280;3803;51.666;7.630;2023-02-03T00:32:22;101731.34;;;11.58;62.35
7524;BME280;3803;51.666;7.630;2023-02-03T00:32:43;101728.66;;;11.56;62.43
7524;BME280;3803;51.666;7.630;2023-02-03T00:33:05;101720.94;;;11.59;62.57
7524;BME280;3803;51.666;7.630;2023-02-03T00:33:45;101749.09;;;11.65;62.58
7524;BME280;3803;51.666;7.630;2023-02-03T00:34:06;101730.56;;;11.60;62.39
7524;BME280;3803;51.666;7.630;2023-02-03T00:34:30;101736.81;;;11.64;62.33
7524;BME280;3803;51.666;7.630;2023-02-03T00:34:50;101726.25;;;11.61;62.27
7524;BME280;3803;51.666;7.630;2023-02-03T00:35:11;101744.66;;;11.64;62.66
7524;BME280;3803;51.666;7.630;2023-02-03T00:35:31;101738.63;;;11.65;62.53
7524;BME280;3803;51.666;7.630;2023-02-03T00:35:52;101729.81;;;11.63;62.66
7524;BME280;3803;51.666;7.630;2023-02-03T00:36:13;101744.75;;;11.65;62.25
7524;BME280;3803;51.666;7.630;2023-02-03T00:36:34;101731.25;;;11.56;62.19
7524;BME280;3803;51.666;7.630;2023-02-03T00:36:55;101729.81;;;11.63;62.24
7524;BME280;3803;51.666;7.630;2023-02-03T00:37:16;101738.47;;;11.62;62.37
7524;BME280;3803;51.666;7.630;2023-02-03T00:37:37;101735.78;;;11.60;62.15
7524;BME280;3803;51.666;7.630;2023-02-03T00:37:57;101742.88;;;11.63;62.27
7524;BME280;3803;51.666;7.630;2023-02-03T00:38:18;101736.47;;;11.55;62.25
7524;BME280;3803;51.666;7.630;2023-02-03T00:38:39;101735.03;;;11.63;62.30
7524;BME280;3803;51.666;7.630;2023-02-03T00:39:00;101744.53;;;11.61;62.16
7524;BME280;3803;51.666;7.630;2023-02-03T00:39:21;101726.25;;;11.61;62.22
7524;BME280;3803;51.666;7.630;2023-02-03T00:39:41;101733.94;;;11.58;62.33
7524;BME280;3803;51.666;7.630;2023-02-03T00:40:02;101733.50;;;11.68;62.11
7524;BME280;3803;51.666;7.630;2023-02-03T00:40:25;101720.88;;;11.58;62.18
7524;BME280;3803;51.666;7.630;2023-02-03T00:40:52;101732.03;;;11.75;62.25
7524;BME280;3803;51.666;7.630;2023-02-03T00:41:19;101737.97;;;11.71;62.03
7524;BME280;3803;51.666;7.630;2023-02-03T00:41:40;101749.09;;;11.65;62.32
7524;BME280;3803;51.666;7.630;2023-02-03T00:42:03;101744.03;;;11.70;62.07
7524;BME280;3803;51.666;7.630;2023-02-03T00:42:24;101746.66;;;11.70;61.87
7524;BME280;3803;51.666;7.630;2023-02-03T00:42:45;101745.81;;;11.71;61.97
7524;BME280;3803;51.666;7.630;2023-02-03T00:43:05;101746.88;;;11.76;61.87
7524;BME280;3803;51.666;7.630;2023-02-03T00:43:26;101739.81;;;11.73;62.01
7524;BME280;3803;51.666;7.630;2023-02-03T00:43:47;101743.44;;;11.77;61.49
7524;BME280;3803;51.666;7.630;2023-02-03T00:44:08;101737.19;;;11.73;61.84
7524;BME280;3803;51.666;7.630;2023-02-03T00:44:29;101745.28;;;11.79;61.50
7524;BME280;3803;51.666;7.630;2023-02-03T00:44:51;101735.34;;;11.71;61.66
7524;BME280;3803;51.666;7.630;2023-02-03T00:45:12;101740.53;;;11.69;61.81
7524;BME280;3803;51.666;7.630;2023-02-03T00:45:32;101754.56;;;11.71;61.75
7524;BME280;3803;51.666;7.630;2023-02-03T00:45:53;101744.75;;;11.65;61.94
7524;BME280;3803;51.666;7.630;2023-02-03T00:46:14;101745.09;;;11.75;61.72
7524;BME280;3803;51.666;7.630;2023-02-03T00:46:35;101740.56;;;11.71;61.77
7524;BME280;3803;51.666;7.630;2023-02-03T00:46:56;101738.03;;;11.72;61.89
7524;BME280;3803;51.666;7.630;2023-02-03T00:47:17;101743.16;;;11.69;61.97
7524;BME280;3803;51.666;7.630;2023-02-03T00:47:37;101739.81;;;11.73;61.94
7524;BME280;3803;51.666;7.630;2023-02-03T00:47:58;101755.63;;;11.76;61.65
7524;BME280;3803;51.666;7.630;2023-02-03T00:48:19;101747.59;;;11.72;61.69
7524;BME280;3803;51.666;7.630;2023-02-03T00:48:40;101744.97;;;11.72;62.04
7524;BME280;3803;51.666;7.630;2023-02-03T00:49:02;101743.38;;;11.75;61.57
7524;BME280;3803;51.666;7.630;2023-02-03T00:49:22;101748.66;;;11.77;61.59
7524;BME280;3803;51.666;7.630;2023-02-03T00:49:43;101742.19;;;11.67;61.81
7524;BME280;3803;51.666;7.630;2023-02-03T00:50:05;101752.78;;;11.70;61.75
7524;BME280;3803;51.666;7.630;2023-02-03T00:50:25;101748.50;;;11.72;61.72
7524;BME280;3803;51.666;7.630;2023-02-03T00:50:47;101755.22;;;11.65;61.61
7524;BME280;3803;51.666;7.630;2023-02-03T00:51:08;101737.66;;;11.63;61.99
7524;BME280;3803;51.666;7.630;2023-02-03T00:51:28;101757.66;;;11.62;62.18
7524;BME280;3803;51.666;7.630;2023-02-03T00:51:49;101739.44;;;11.64;61.98
7524;BME280;3803;51.666;7.630;2023-02-03T00:52:10;101740.59;;;11.49;62.13
7524;BME280;3803;51.666;7.630;2023-02-03T00:52:32;101757.81;;;11.44;62.34
7524;BME280;3803;51.666;7.630;2023-02-03T00:52:52;101742.97;;;11.43;62.43
7524;BME280;3803;51.666;7.630;2023-02-03T00:53:13;101756.44;;;11.52;62.42
7524;BME280;3803;51.666;7.630;2023-02-03T00:53:34;101743.13;;;11.48;62.43
7524;BME280;3803;51.666;7.630;2023-02-03T00:53:55;101755.59;;;11.54;62.28
7524;BME280;3803;51.666;7.630;2023-02-03T00:54:16;101776.88;;;11.63;62.43
7524;BME280;3803;51.666;7.630;2023-02-03T00:54:37;101755.69;;;11.57;62.09
7524;BME280;3803;51.666;7.630;2023-02-03T00:54:58;101751.47;;;11.60;61.91
7524;BME280;3803;51.666;7.630;2023-02-03T00:55:18;101748.81;;;11.59;61.98
7524;BME280;3803;51.666;7.630;2023-02-03T00:55:41;101750.66;;;11.61;62.21
7524;BME280;3803;51.666;7.630;2023-02-03T00:56:02;101757.88;;;11.67;61.75
7524;BME280;3803;51.666;7.630;2023-02-03T00:56:23;101760.56;;;11.69;62.02
7524;BME280;3803;51.666;7.630;2023-02-03T00:56:43;101738.47;;;11.62;61.58
7524;BME280;3803;51.666;7.630;2023-02-03T00:57:05;101761.31;;;11.66;61.80
7524;BME280;3803;51.666;7.630;2023-02-03T00:57:26;101766.72;;;11.71;61.74
7524;BME280;3803;51.666;7.630;2023-02-03T00:57:46;101762.16;;;11.65;61.82
7524;BME280;3803;51.666;7.630;2023-02-03T00:58:07;101752.38;;;11.61;62.13
7524;BME280;3803;51.666;7.630;2023-02-03T00:58:28;101756.09;;;11.66;61.95
7524;BME280;3803;51.666;7.630;2023-02-03T00:58:48;101748.94;;;11.62;61.88
7524;BME280;3803;51.666;7.630;2023-02-03T00:59:09;101778.03;;;11.70;61.90
7524;BME280;3803;51.666;7.630;2023-02-03T00:59:29;101757.84;;;11.65;62.06
7524;BME280;3803;51.666;7.630;2023-02-03T00:59:51;101751.56;;;11.62;61.90
7524;BME280;3803;51.666;7.630;2023-02-03T01:00:12;101763.94;;;11.66;61.84
7524;BME280;3803;51.666;7.630;2023-02-03T01:00:33;101755.94;;;11.63;62.05
7524;BME280;3803;51.666;7.630;2023-02-03T01:00:54;101756.94;;;11.65;61.64
7524;BME280;3803;51.666;7.630;2023-02-03T01:01:16;101767.72;;;11.73;61.76
7524;BME280;3803;51.666;7.630;2023-02-03T01:01:37;101755.94;;;11.63;61.75
7524;BME280;3803;51.666;7.630;2023-02-03T01:01:57;101742.03;;;11.64;61.59
7524;BME280;3803;51.666;7.630;2023-02-03T01:02:18;101763.25;;;11.70;61.59
7524;BME280;3803;51.666;7.630;2023-02-03T01:02:39;101757.88;;;11.67;61.54
7524;BME280;3803;51.666;7.630;2023-02-03T01:03:00;101775.72;;;11.77;61.76
7524;BME280;3803;51.666;7.630;2023-02-03T01:03:21;101754.94;;;11.59;61.91
7524;BME280;3803;51.666;7.630;2023-02-03T01:03:42;101772.91;;;11.51;61.63
7524;BME280;3803;51.666;7.630;2023-02-03T01:04:03;101757.47;;;11.58;61.81
7524;BME280;3803;51.666;7.630;2023-02-03T01:04:24;101759.41;;;11.62;62.01
7524;BME280;3803;51.666;7.630;2023-02-03T01:04:45;101770.81;;;11.64;61.82
7524;BME280;3803;51.666;7.630;2023-02-03T01:05:06;101782.59;;;11.75;61.73
7524;BME280;3803;51.666;7.630;2023-02-03T01:05:27;101800.09;;;11.76;61.39
7524;BME280;3803;51.666;7.630;2023-02-03T01:05:47;101767.28;;;11.63;61.96
7524;BME280;3803;51.666;7.630;2023-02-03T01:06:17;101774.09;;;11.60;61.62
7524;BME280;3803;51.666;7.630;2023-02-03T01:06:39;101764.63;;;11.62;61.74
7524;BME280;3803;51.666;7.630;2023-02-03T01:06:59;101777.84;;;11.65;61.92
7524;BME280;3803;51.666;7.630;2023-02-03T01:07:20;101762.97;;;11.64;61.48
7524;BME280;3803;51.666;7.630;2023-02-03T01:07:42;101765.03;;;11.71;61.61
7524;BME280;3803;51.666;7.630;2023-02-03T01:08:03;101782.16;;;11.86;61.50
7524;BME280;3803;51.666;7.630;2023-02-03T01:08:23;101776.84;;;11.84;61.30
7524;BME280;3803;51.666;7.630;2023-02-03T01:08:44;101783.28;;;11.92;61.12
7524;BME280;3803;51.666;7.630;2023-02-03T01:09:05;101773.03;;;11.76;61.26
7524;BME280;3803;51.666;7.630;2023-02-03T01:09:27;101781.91;;;11.79;61.49
7524;BME280;3803;51.666;7.630;2023-02-03T01:09:48;101773.88;;;11.75;61.17
7524;BME280;3803;51.666;7.630;2023-02-03T01:10:09;101772.03;;;11.72;61.01
7524;BME280;3803;51.666;7.630;2023-02-03T01:10:30;101768.56;;;11.73;61.21
7524;BME280;3803;51.666;7.630;2023-02-03T01:10:50;101791.53;;;11.81;61.15
7524;BME280;3803;51.666;7.630;2023-02-03T01:11:17;101794.03;;;11.77;61.47
7524;BME280;3803;51.666;7.630;2023-02-03T01:11:38;101783.69;;;11.81;61.12
7524;BME280;3803;51.666;7.630;2023-02-03T01:11:59;101780.97;;;11.77;61.00
7524;BME280;3803;51.666;7.630;2023-02-03T01:12:20;101783.50;;;11.76;61.13
7524;BME280;3803;51.666;7.630;2023-02-03T01:12:40;101785.22;;;11.75;61.17
7524;BME280;3803;51.666;7.630;2023-02-03T01:13:01;101787.97;;;11.78;61.42
7524;BME280;3803;51.666;7.630;2023-02-03T01:13:22;101787.91;;;11.77;61.05
7524;BME280;3803;51.666;7.630;2023-02-03T01:13:43;101792.19;;;11.75;61.60
7524;BME280;3803;51.666;7.630;2023-02-03T01:14:04;101793.19;;;11.78;61.24
7524;BME280;3803;51.666;7.630;2023-02-03T01:14:25;101806.53;;;11.85;61.32
7524;BME280;3803;51.666;7.630;2023-02-03T01:14:45;101795.34;;;11.89;61.09
7524;BME280;3803;51.666;7.630;2023-02-03T01:15:06;101805.53;;;11.83;61.26
7524;BME280;3803;51.666;7.630;2023-02-03T01:15:27;101800.78;;;11.72;61.21
7524;BME280;3803;51.666;7.630;2023-02-03T01:15:48;101798.53;;;11.82;61.28
7524;BME280;3803;51.666;7.630;2023-02-03T01:16:11;101798.53;;;11.82;61.14
7524;BME280;3803;51.666;7.630;2023-02-03T01:16:31;101799.47;;;11.84;61.21
7524;BME280;3803;51.666;7.630;2023-02-03T01:16:55;101808.41;;;11.89;61.08
7524;BME280;3803;51.666;7.630;2023-02-03T01:17:17;101806.75;;;11.91;61.08
7524;BME280;3803;51.666;7.630;2023-02-03T01:17:37;101783.09;;;11.88;60.92
7524;BME280;3803;51.666;7.630;2023-02-03T01:17:58;101795.09;;;11.83;61.13
7524;BME280;3803;51.666;7.630;2023-02-03T01:18:19;101805.44;;;11.79;61.25
7524;BME280;3803;51.666;7.630;2023-02-03T01:18:40;101791.41;;;11.77;61.25
7524;BME280;3803;51.666;7.630;2023-02-03T01:19:01;101796.16;;;11.88;61.12
7524;BME280;3803;51.666;7.630;2023-02-03T01:19:22;101798.84;;;11.89;60.92
7524;BME280;3803;51.666;7.630;2023-02-03T01:19:42;101786.19;;;11.77;61.09
7524;BME280;3803;51.666;7.630;2023-02-03T01:20:03;101791.94;;;11.91;61.07
7524;BME280;3803;51.666;7.630;2023-02-03T01:20:24;101778.28;;;11.76;61.10
7524;BME280;3803;51.666;7.630;2023-02-03T01:20:45;101790.69;;;11.82;61.09
7524;BME280;3803;51.666;7.630;2023-02-03T01:21:15;101802.22;;;11.87;61.04
7524;BME280;3803;51.666;7.630;2023-02-03T01:21:36;101785.63;;;11.86;61.06
7524;BME280;3803;51.666;7.630;2023-02-03T01:21:57;101784.97;;;11.92;60.98
7524;BME280;3803;51.666;7.630;2023-02-03T01:22:18;101782.59;;;11.75;61.37
7524;BME280;3803;51.666;7.630;2023-02-03T01:22:39;101790.75;;;11.83;61.13
7524;BME280;3803;51.666;7.630;2023-02-03T01:22:59;101788.00;;;11.80;61.09
7524;BME280;3803;51.666;7.630;2023-02-03T01:23:20;101775.91;;;11.82;60.94
7524;BME280;3803;51.666;7.630;2023-02-03T01:23:41;101792.53;;;11.84;60.99
7524;BME280;3803;51.666;7.630;2023-02-03T01:24:02;101780.97;;;11.77;61.00
7524;BME280;3803;51.666;7.630;2023-02-03T01:24:22;101783.25;;;11.70;61.10
7524;BME280;3803;51.666;7.630;2023-02-03T01:24:43;101786.81;;;11.72;61.43
7524;BME280;3803;51.666;7.630;2023-02-03T01:25:06;101788.66;;;11.74;61.10
7524;BME280;3803;51.666;7.630;2023-02-03T01:25:26;101781.84;;;11.78;61.19
7524;BME280;3803;51.666;7.630;2023-02-03T01:25:47;101788.84;;;11.79;61.19
7524;BME280;3803;51.666;7.630;2023-02-03T01:26:10;101768.81;;;11.79;60.96
7524;BME280;3803;51.666;7.630;2023-02-03T01:26:31;101789.84;;;11.83;61.16
7524;BME280;3803;51.666;7.630;2023-02-03T01:26:52;101773.22;;;11.81;61.08
7524;BME280;3803;51.666;7.630;2023-02-03T01:27:14;101783.75;;;11.82;60.99
7524;BME280;3803;51.666;7.630;2023-02-03T01:27:35;101785.34;;;11.78;60.75
7524;BME280;3803;51.666;7.630;2023-02-03T01:27:55;101781.00;;;11.79;61.11
7524;BME280;3803;51.666;7.630;2023-02-03T01:28:17;101780.72;;;11.71;61.08
7524;BME280;3803;51.666;7.630;2023-02-03T01:28:39;101781.38;;;11.65;61.22
7524;BME280;3803;51.666;7.630;2023-02-03T01:29:00;101789.81;;;11.81;61.06
7524;BME280;3803;51.666;7.630;2023-02-03T01:29:21;101789.00;;;11.84;60.98
7524;BME280;3803;51.666;7.630;2023-02-03T01:29:43;101789.84;;;11.83;61.06
7524;BME280;3803;51.666;7.630;2023-02-03T01:30:05;101796.88;;;11.84;60.97
7524;BME280;3803;51.666;7.630;2023-02-03T01:30:25;101793.31;;;11.82;60.98
7524;BME280;3803;51.666;7.630;2023-02-03T01:30:46;101785.59;;;11.85;61.00
7524;BME280;3803;51.666;7.630;2023-02-03T01:31:18;101784.44;;;11.78;61.12
7524;BME280;3803;51.666;7.630;2023-02-03T01:31:40;101783.69;;;11.81;61.22
7524;BME280;3803;51.666;7.630;2023-02-03T01:32:01;101784.00;;;11.88;60.85
7524;BME280;3803;51.666;7.630;2023-02-03T01:32:22;101786.28;;;11.81;61.04
7524;BME280;3803;51.666;7.630;2023-02-03T01:32:43;101788.91;;;11.81;60.72
7524;BME280;3803;51.666;7.630;2023-02-03T01:33:03;101800.56;;;11.89;60.89
7524;BME280;3803;51.666;7.630;2023-02-03T01:33:25;101784.59;;;11.81;60.86
7524;BME280;3803;51.666;7.630;2023-02-03T01:33:46;101788.31;;;11.88;60.96
7524;BME280;3803;51.666;7.630;2023-02-03T01:34:12;101784.81;;;11.87;60.86
7524;BME280;3803;51.666;7.630;2023-02-03T01:34:32;101793.56;;;11.88;60.73
7524;BME280;3803;51.666;7.630;2023-02-03T01:34:53;101810.19;;;11.90;60.92
7524;BME280;3803;51.666;7.630;2023-02-03T01:35:14;101796.25;;;11.89;60.99
7524;BME280;3803;51.666;7.630;2023-02-03T01:35:35;101791.41;;;11.77;61.08
7524;BME280;3803;51.666;7.630;2023-02-03T01:35:59;101803.75;;;11.82;60.90
7524;BME280;3803;51.666;7.630;2023-02-03T01:36:22;101800.66;;;11.92;61.09
7524;BME280;3803;51.666;7.630;2023-02-03T01:36:43;101797.78;;;11.84;60.94
7524;BME280;3803;51.666;7.630;2023-02-03T01:37:04;101779.19;;;11.76;60.90
7524;BME280;3803;51.666;7.630;2023-02-03T01:37:25;101791.16;;;11.71;60.99
7524;BME280;3803;51.666;7.630;2023-02-03T01:37:45;101788.91;;;11.81;61.24
7524;BME280;3803;51.666;7.630;2023-02-03T01:38:06;101803.50;;;11.75;61.19
7524;BME280;3803;51.666;7.630;2023-02-03T01:38:26;101786.25;;;11.58;61.33
7524;BME280;3803;51.666;7.630;2023-02-03T01:38:48;101790.91;;;11.65;61.35
7524;BME280;3803;51.666;7.630;2023-02-03T01:39:09;101770.47;;;11.56;61.63
7524;BME280;3803;51.666;7.630;2023-02-03T01:39:30;101774.25;;;11.63;61.68
7524;BME280;3803;51.666;7.630;2023-02-03T01:39:50;101798.19;;;11.72;61.76
7524;BME280;3803;51.666;7.630;2023-02-03T01:40:11;101792.00;;;11.70;61.30
7524;BME280;3803;51.666;7.630;2023-02-03T01:40:33;101782.41;;;11.71;61.54
7524;BME280;3803;51.666;7.630;2023-02-03T01:40:53;101789.50;;;11.73;61.44
7524;BME280;3803;51.666;7.630;2023-02-03T01:41:19;101794.22;;;11.61;61.39
7524;BME280;3803;51.666;7.630;2023-02-03T01:41:40;101789.25;;;11.67;61.19
7524;BME280;3803;51.666;7.630;2023-02-03T01:42:04;101780.34;;;11.63;61.22
7524;BME280;3803;51.666;7.630;2023-02-03T01:42:25;101823.56;;;11.75;60.95
7524;BME280;3803;51.666;7.630;2023-02-03T01:42:46;101783.25;;;11.70;61.13
7524;BME280;3803;51.666;7.630;2023-02-03T01:43:08;101788.81;;;11.77;60.96
7524;BME280;3803;51.666;7.630;2023-02-03T01:43:32;101788.16;;;11.83;61.21
7524;BME280;3803;51.666;7.630;2023-02-03T01:43:55;101783.19;;;11.68;61.00
7524;BME280;3803;51.666;7.630;2023-02-03T01:45:02;101782.66;;;11.77;61.29
7524;BME280;3803;51.666;7.630;2023-02-03T01:45:23;101788.00;;;11.80;61.17
7524;BME280;3803;51.666;7.630;2023-02-03T01:45:44;101798.72;;;11.86;61.13
7524;BME280;3803;51.666;7.630;2023-02-03T01:46:47;101782.59;;;11.75;60.86
7524;BME280;3803;51.666;7.630;2023-02-03T01:47:45;101790.50;;;11.77;60.87
7524;BME280;3803;51.666;7.630;2023-02-03T01:48:08;101789.63;;;11.76;60.73
7524;BME280;3803;51.666;7.630;2023-02-03T01:48:31;101788.06;;;11.82;61.09
7524;BME280;3803;51.666;7.630;2023-02-03T01:48:58;101789.63;;;11.76;60.84
7524;BME280;3803;51.666;7.630;2023-02-03T01:49:26;101767.03;;;11.78;61.07
7524;BME280;3803;51.666;7.630;2023-02-03T01:50:20;101784.63;;;11.83;60.93
7524;BME280;3803;51.666;7.630;2023-02-03T01:50:42;101792.25;;;11.76;61.19
7524;BME280;3803;51.666;7.630;2023-02-03T01:51:03;101769.78;;;11.60;61.12
7524;BME280;3803;51.666;7.630;2023-02-03T01:51:24;101777.16;;;11.69;61.13
7524;BME280;3803;51.666;7.630;2023-02-03T01:51:47;101755.13;;;11.64;61.12
7524;BME280;3803;51.666;7.630;2023-02-03T01:52:08;101780.22;;;11.82;61.05
7524;BME280;3803;51.666;7.630;2023-02-03T01:52:30;101753.72;;;11.72;61.03
7524;BME280;3803;51.666;7.630;2023-02-03T01:53:00;101762.66;;;11.77;60.87
7524;BME280;3803;51.666;7.630;2023-02-03T01:53:21;101753.97;;;11.78;60.67
7524;BME280;3803;51.666;7.630;2023-02-03T01:53:42;101760.91;;;11.78;60.70
7524;BME280;3803;51.666;7.630;2023-02-03T01:54:04;101757.47;;;11.79;60.86
7524;BME280;3803;51.666;7.630;2023-02-03T01:54:29;101773.81;;;11.73;60.83
7524;BME280;3803;51.666;7.630;2023-02-03T01:54:53;101771.91;;;11.69;61.00
7524;BME280;3803;51.666;7.630;2023-02-03T01:55:19;101782.72;;;11.78;61.05
7524;BME280;3803;51.666;7.630;2023-02-03T01:55:46;101781.59;;;11.72;61.20
7524;BME280;3803;51.666;7.630;2023-02-03T01:56:08;101776.56;;;11.76;61.34
7524;BME280;3803;51.666;7.630;2023-02-03T01:56:31;101771.78;;;11.66;61.46
7524;BME280;3803;51.666;7.630;2023-02-03T01:57:01;101771.78;;;11.66;61.05
7524;BME280;3803;51.666;7.630;2023-02-03T01:57:26;101779.69;;;11.68;61.18
7524;BME280;3803;51.666;7.630;2023-02-03T01:57:55;101760.72;;;11.73;61.08
7524;BME280;3803;51.666;7.630;2023-02-03T01:58:24;101774.41;;;11.89;60.78
7524;BME280;3803;51.666;7.630;2023-02-03T01:58:48;101769.91;;;11.85;60.62
7524;BME280;3803;51.666;7.630;2023-02-03T01:59:09;101758.38;;;11.79;61.00
7524;BME280;3803;51.666;7.630;2023-02-03T01:59:30;101775.00;;;11.82;60.77
7524;BME280;3803;51.666;7.630;2023-02-03T01:59:54;101759.44;;;11.85;61.27
7524;BME280;3803;51.666;7.630;2023-02-03T02:00:17;101761.22;;;11.86;60.67
7524;BME280;3803;51.666;7.630;2023-02-03T02:00:38;101767.16;;;11.82;60.97
7524;BME280;3803;51.666;7.630;2023-02-03T02:00:59;101764.47;;;11.80;61.02
7524;BME280;3803;51.666;7.630;2023-02-03T02:01:20;101757.53;;;11.81;60.81
7524;BME280;3803;51.666;7.630;2023-02-03T02:01:42;101770.84;;;11.87;60.76
7524;BME280;3803;51.666;7.630;2023-02-03T02:02:04;101775.13;;;11.85;60.62
7524;BME280;3803;51.666;7.630;2023-02-03T02:02:25;101764.69;;;11.85;60.82
7524;BME280;3803;51.666;7.630;2023-02-03T02:02:47;101776.16;;;11.88;60.44
7524;BME280;3803;51.666;7.630;2023-02-03T02:03:09;101764.69;;;11.85;60.54